Airfield :
LOGIN :

Register | Disclaimer

   EN    FR    IT 

 










Legend :    VFR   Marginal VFR   IFR   Intensive IFR   Very Intensive IFR
Visi :
Ceiling :
>= 8 km
>= 3000ft
5 to 8 km
1000 to 3000 ft
1500m to 5 km
500 to 1000 ft
800 to 1500m
200 to 500 ft
< 800m
< 200 ft
Symbols :   Thunderstorms  Fog  Heavy snow  Heavy precipitations  Wind > 20 kt
SIGMETs :     Misc.  Thunderstorms  Icing  Turbulence  Mountain Waves  Volcanic Ashes







- Airport Elevation : 132 ft


EGXE - RAF Leeming

CURRENT METAR :
  • 160650Z 22007KT CAVOK 15/11 Q1007 BLU TEMPO SCT020 WHT

EXPIRED METARs :
  • 160550Z 25012KT 9999 -DZ BKN031 BKN140 14/12 Q1007 BLU
  • 160450Z AUTO 21012KT 9999 BKN024/// BKN160/// 16/13 Q1007

TAF TAF EGXE
Valid from the 16 at 06:00 until the 16 at 15:00 UTC


160542Z 1606/1615 24008KT 9999 SCT032
TEMPO 1606/1609 SCT020
TEMPO 1614/1615 25015G25KT 7000 SHRA
No reported NOTAMs for that airfield.



MET'MAP, your aeronautical weather chart ! - Copyright ORBIFLY December 2007 - Disclaimer

ORBIFLY MET'MAP TEAM :

Programming & Development : Alexandra Zaïnal
Concept & Development : Baudouin d'Aumeries
Co-Development & Prog : Marc-Olivier Méhu
Technical & hardware support : Manuel Goepfert

Contact : metmap@orbifly.com




SOURCES & CREDITS :

   NOAA